createdAt,value
2023-04-02T00:02:21.352Z,99.90
2023-04-02T00:05:34.430Z,99.90
2023-04-02T00:08:41.255Z,99.90
2023-04-02T00:11:45.409Z,99.90
2023-04-02T00:14:54.141Z,99.90
2023-04-02T00:17:56.685Z,99.90
2023-04-02T00:21:16.816Z,99.90
2023-04-02T00:24:21.695Z,99.90
2023-04-02T00:27:23.763Z,99.90
2023-04-02T00:30:25.533Z,99.90
2023-04-02T00:33:31.352Z,99.90
2023-04-02T00:36:34.544Z,99.90
2023-04-02T00:39:42.055Z,99.90
2023-04-02T00:42:44.627Z,99.90
2023-04-02T00:45:50.826Z,99.90
2023-04-02T00:49:10.683Z,99.90
2023-04-02T00:52:16.593Z,99.90
2023-04-02T00:55:25.343Z,99.90
2023-04-02T00:58:32.588Z,99.90
2023-04-02T01:01:36.998Z,99.90
2023-04-02T01:04:38.900Z,99.90
2023-04-02T01:07:59.165Z,99.90
2023-04-02T01:11:13.638Z,99.90
2023-04-02T01:14:34.510Z,99.90
2023-04-02T01:17:43.169Z,99.90
2023-04-02T01:21:15.005Z,99.90
2023-04-02T01:24:16.730Z,99.90
2023-04-02T01:27:23.970Z,99.90
2023-04-02T01:30:26.207Z,99.90
2023-04-02T01:33:34.186Z,99.90
2023-04-02T01:37:03.400Z,99.90
2023-04-02T01:40:22.734Z,99.90
2023-04-02T01:43:45.845Z,99.90
2023-04-02T01:46:48.712Z,99.90
2023-04-02T01:49:56.921Z,99.90
2023-04-02T01:53:01.764Z,99.90
2023-04-02T01:56:04.948Z,99.90
2023-04-02T01:59:07.093Z,99.90
2023-04-02T02:02:13.615Z,99.90
2023-04-02T02:05:18.989Z,99.90
2023-04-02T02:08:31.016Z,99.90
2023-04-02T02:11:33.873Z,99.90
2023-04-02T02:14:36.469Z,99.90
2023-04-02T02:17:38.555Z,99.90
2023-04-02T02:20:41.579Z,99.90
2023-04-02T02:23:43.209Z,99.90
2023-04-02T02:26:48.319Z,99.90
2023-04-02T02:29:55.292Z,99.90
2023-04-02T02:33:02.095Z,99.90
2023-04-02T02:36:12.317Z,99.90
2023-04-02T02:39:22.241Z,99.90
2023-04-02T02:42:30.570Z,99.90
2023-04-02T02:45:38.643Z,99.90
2023-04-02T02:48:41.952Z,99.90
2023-04-02T02:52:17.827Z,99.90
2023-04-02T02:55:30.382Z,99.90
2023-04-02T02:58:33.991Z,99.90
2023-04-02T03:01:35.868Z,99.90
2023-04-02T03:04:38.704Z,99.90
2023-04-02T03:07:40.331Z,99.90
2023-04-02T03:10:52.860Z,99.90
2023-04-02T03:14:00.175Z,99.90
2023-04-02T03:17:19.048Z,99.90
2023-04-02T03:20:37.885Z,99.90
2023-04-02T03:23:45.350Z,99.90
2023-04-02T03:26:58.830Z,99.90
2023-04-02T03:30:23.939Z,99.90
2023-04-02T03:33:35.844Z,99.90
2023-04-02T03:36:48.674Z,99.90
2023-04-02T03:39:50.309Z,99.90
2023-04-02T03:43:15.265Z,99.90
2023-04-02T03:46:30.822Z,99.90
2023-04-02T03:49:46.401Z,99.90
2023-04-02T03:52:48.378Z,99.90
2023-04-02T03:55:50.230Z,99.90
2023-04-02T03:59:03.060Z,99.90
2023-04-02T04:02:12.698Z,99.90
2023-04-02T04:05:23.195Z,99.90
2023-04-02T04:08:32.792Z,99.90
2023-04-02T04:11:38.012Z,99.90
2023-04-02T04:14:45.459Z,99.90
2023-04-02T04:18:10.535Z,99.90
2023-04-02T04:21:39.861Z,99.90
2023-04-02T04:24:45.743Z,99.90
2023-04-02T04:28:10.451Z,99.90
2023-04-02T04:31:21.112Z,99.90
2023-04-02T04:34:51.384Z,99.90
2023-04-02T04:38:14.301Z,99.90
2023-04-02T04:41:22.486Z,99.90
2023-04-02T04:44:32.380Z,99.90
2023-04-02T04:47:38.743Z,99.90
2023-04-02T04:50:58.014Z,99.90
2023-04-02T04:54:00.978Z,99.90
2023-04-02T04:57:03.887Z,99.90
2023-04-02T05:00:27.333Z,99.90
2023-04-02T05:03:46.384Z,99.90
2023-04-02T05:07:03.182Z,99.90
2023-04-02T05:10:27.742Z,99.90
2023-04-02T05:13:57.862Z,99.90
2023-04-02T05:17:29.395Z,99.90
2023-04-02T05:20:44.089Z,99.90
2023-04-02T05:23:49.227Z,99.90
2023-04-02T05:26:52.018Z,99.90
2023-04-02T05:30:07.140Z,99.90
2023-04-02T05:33:21.037Z,99.90
2023-04-02T05:36:25.768Z,99.90
2023-04-02T05:39:27.863Z,99.90
2023-04-02T05:42:32.284Z,99.90
2023-04-02T05:45:40.134Z,99.90
2023-04-02T05:48:44.292Z,99.90
2023-04-02T05:51:51.150Z,99.90
2023-04-02T05:54:59.127Z,99.90
2023-04-02T05:58:33.856Z,99.90
2023-04-02T06:01:35.076Z,99.90
2023-04-02T06:04:46.348Z,99.90
2023-04-02T06:08:14.584Z,99.90
2023-04-02T06:11:25.599Z,99.90
2023-04-02T06:14:27.170Z,99.90
2023-04-02T06:17:29.587Z,99.90
2023-04-02T06:20:32.078Z,99.90
2023-04-02T06:23:58.803Z,99.90
2023-04-02T06:27:06.156Z,99.90
2023-04-02T06:30:17.161Z,99.90
2023-04-02T06:33:18.769Z,99.90
2023-04-02T06:36:21.204Z,99.90
2023-04-02T06:39:26.027Z,99.90
2023-04-02T06:42:48.453Z,99.90
2023-04-02T06:45:54.776Z,99.90
2023-04-02T06:49:09.205Z,99.90
2023-04-02T06:52:35.108Z,99.90
2023-04-02T06:56:06.917Z,99.90
2023-04-02T06:59:09.605Z,99.90
2023-04-02T07:02:40.849Z,99.90
2023-04-02T07:05:43.111Z,99.90
2023-04-02T07:08:44.940Z,99.90
2023-04-02T07:11:46.546Z,99.90
2023-04-02T07:14:48.321Z,99.90
2023-04-02T07:17:50.103Z,99.90
2023-04-02T07:20:52.163Z,99.90
2023-04-02T07:23:54.389Z,99.90
2023-04-02T07:26:56.017Z,99.90
2023-04-02T07:29:57.634Z,99.90
2023-04-02T07:32:59.296Z,99.90
2023-04-02T07:36:01.008Z,99.90
2023-04-02T07:39:03.109Z,99.90
2023-04-02T07:42:04.942Z,99.90
2023-04-02T07:45:07.221Z,99.50
2023-04-02T07:48:13.535Z,99.70
2023-04-02T07:51:23.510Z,99.80
2023-04-02T07:54:27.041Z,99.90
2023-04-02T07:57:28.798Z,99.90
2023-04-02T08:00:30.537Z,99.80
2023-04-02T08:03:32.795Z,99.50
2023-04-02T08:06:34.427Z,99.80
2023-04-02T08:09:36.034Z,99.90
2023-04-02T08:12:38.125Z,99.90
2023-04-02T08:15:39.874Z,99.90
2023-04-02T08:18:41.459Z,99.80
2023-04-02T08:21:44.703Z,99.80
2023-04-02T08:24:46.251Z,99.70
2023-04-02T08:27:48.159Z,99.50
2023-04-02T08:30:51.181Z,99.60
2023-04-02T08:33:54.005Z,99.50
2023-04-02T08:36:57.904Z,99.50
2023-04-02T08:39:59.522Z,99.40
2023-04-02T08:43:13.139Z,99.30
2023-04-02T08:46:22.064Z,98.80
2023-04-02T08:49:40.420Z,99.50
2023-04-02T08:52:42.242Z,98.60
2023-04-02T08:56:05.890Z,99.40
2023-04-02T08:59:28.715Z,98.60
2023-04-02T09:02:35.734Z,98.30
2023-04-02T09:05:41.876Z,99.10
2023-04-02T09:08:44.960Z,99.10
2023-04-02T09:12:03.932Z,98.90
2023-04-02T09:15:18.488Z,99.30
2023-04-02T09:18:20.599Z,99.30
2023-04-02T09:21:22.414Z,98.80
2023-04-02T09:24:24.042Z,98.40
2023-04-02T09:27:34.720Z,98.30
2023-04-02T09:30:56.152Z,97.50
2023-04-02T09:33:57.806Z,97.50
2023-04-02T09:37:14.305Z,98.10
2023-04-02T09:40:28.101Z,97.80
2023-04-02T09:43:35.789Z,97.70
2023-04-02T09:46:37.534Z,97.90
2023-04-02T09:49:40.680Z,97.70
2023-04-02T09:52:42.266Z,97.80
2023-04-02T09:55:44.074Z,97.90
2023-04-02T09:59:01.824Z,97.30
2023-04-02T10:02:05.496Z,98.30
2023-04-02T10:05:41.063Z,97.70
2023-04-02T10:08:45.026Z,96.70
2023-04-02T10:11:47.341Z,98.30
2023-04-02T10:14:49.518Z,97.80
2023-04-02T10:18:07.903Z,97.70
2023-04-02T10:21:13.002Z,97.00
2023-04-02T10:24:16.517Z,97.50
2023-04-02T10:27:37.874Z,97.60
2023-04-02T10:30:53.452Z,97.70
2023-04-02T10:34:04.743Z,97.60
2023-04-02T10:37:30.577Z,97.80
2023-04-02T10:40:32.282Z,96.90
2023-04-02T10:44:01.063Z,97.60
2023-04-02T10:47:44.609Z,96.30
2023-04-02T10:50:56.070Z,96.70
2023-04-02T10:54:12.312Z,97.60
2023-04-02T10:57:19.891Z,96.70
2023-04-02T11:00:28.532Z,97.00
2023-04-02T11:03:48.553Z,97.40
2023-04-02T11:07:13.311Z,97.40
2023-04-02T11:10:20.301Z,97.70
2023-04-02T11:13:29.902Z,97.30
2023-04-02T11:16:32.409Z,97.30
2023-04-02T11:19:34.732Z,97.30
2023-04-02T11:22:37.228Z,97.30
2023-04-02T11:25:39.484Z,97.30
2023-04-02T11:28:41.220Z,97.20
2023-04-02T11:31:44.056Z,96.50
2023-04-02T11:34:56.456Z,96.90
2023-04-02T11:38:31.511Z,97.10
2023-04-02T11:42:30.952Z,95.90
2023-04-02T11:45:57.169Z,95.50
2023-04-02T11:49:49.230Z,95.50
2023-04-02T11:53:06.461Z,95.70
2023-04-02T11:57:10.312Z,96.90
2023-04-02T12:04:53.969Z,95.20
2023-04-02T12:08:34.956Z,95.10
2023-04-02T12:11:40.248Z,95.00
2023-04-02T12:14:50.964Z,96.00
2023-04-02T12:17:52.487Z,94.60
2023-04-02T12:20:56.556Z,96.20
2023-04-02T12:23:59.381Z,95.90
2023-04-02T12:27:08.798Z,95.40
2023-04-02T12:30:23.505Z,95.50
2023-04-02T12:33:30.848Z,95.50
2023-04-02T12:36:34.332Z,97.90
2023-04-02T12:39:37.230Z,95.50
2023-04-02T12:42:38.828Z,95.40
2023-04-02T12:45:40.674Z,95.50
2023-04-02T12:48:42.536Z,95.20
2023-04-02T12:51:44.441Z,95.50
2023-04-02T12:54:49.156Z,95.00
2023-04-02T12:57:56.138Z,95.30
2023-04-02T13:01:12.877Z,95.30
2023-04-02T13:04:14.880Z,94.80
2023-04-02T13:07:18.960Z,95.30
2023-04-02T13:10:26.285Z,95.40
2023-04-02T13:13:35.497Z,95.40
2023-04-02T13:16:40.606Z,95.40
2023-04-02T13:19:42.295Z,95.60
2023-04-02T13:22:43.847Z,95.50
2023-04-02T13:25:45.550Z,95.50
2023-04-02T13:28:56.517Z,95.80
2023-04-02T13:32:01.410Z,95.00
2023-04-02T13:35:03.124Z,95.10
2023-04-02T13:38:06.174Z,95.00
2023-04-02T13:41:20.795Z,94.80
2023-04-02T13:44:25.976Z,94.80
2023-04-02T13:47:27.655Z,95.00
2023-04-02T13:50:34.580Z,95.00
2023-04-02T13:53:37.180Z,94.70
2023-04-02T13:56:38.842Z,93.50
2023-04-02T13:59:40.688Z,93.30
2023-04-02T14:02:48.151Z,93.70
2023-04-02T14:05:49.738Z,93.40
2023-04-02T14:09:23.115Z,93.60
2023-04-02T14:12:28.447Z,92.50
2023-04-02T14:15:45.922Z,92.20
2023-04-02T14:18:57.306Z,92.50
2023-04-02T14:22:23.706Z,92.60
2023-04-02T14:25:45.626Z,91.90
2023-04-02T14:29:03.321Z,93.20
2023-04-02T14:32:27.115Z,92.20
2023-04-02T14:35:37.219Z,93.40
2023-04-02T14:39:00.543Z,92.70
2023-04-02T14:42:09.192Z,93.10
2023-04-02T14:45:28.762Z,93.20
2023-04-02T14:48:33.174Z,91.70
2023-04-02T14:51:38.225Z,92.00
2023-04-02T14:55:04.955Z,92.20
2023-04-02T14:58:16.139Z,92.10
2023-04-02T15:01:27.470Z,93.40
2023-04-02T15:04:42.480Z,92.60
2023-04-02T15:07:50.518Z,90.80
2023-04-02T15:11:01.984Z,89.70
2023-04-02T15:14:23.749Z,90.30
2023-04-02T15:17:25.444Z,86.60
2023-04-02T15:20:38.170Z,90.00
2023-04-02T15:24:09.734Z,91.10
2023-04-02T15:27:38.310Z,88.60
2023-04-02T15:30:45.049Z,87.90
2023-04-02T15:33:56.843Z,90.50
2023-04-02T15:37:05.246Z,88.90
2023-04-02T15:40:44.202Z,88.50
2023-04-02T15:44:08.283Z,88.00
2023-04-02T15:47:36.877Z,89.40
2023-04-02T15:51:06.893Z,90.70
2023-04-02T15:54:39.889Z,90.70
2023-04-02T15:57:58.332Z,90.20
2023-04-02T16:01:19.346Z,90.70
2023-04-02T16:04:45.773Z,90.70
2023-04-02T16:07:58.195Z,91.40
2023-04-02T16:10:59.758Z,91.00
2023-04-02T16:14:16.753Z,91.50
2023-04-02T16:17:33.008Z,90.60
2023-04-02T16:20:57.049Z,91.80
2023-04-02T16:23:58.804Z,94.90
2023-04-02T16:27:24.477Z,91.90
2023-04-02T16:30:46.585Z,90.80
2023-04-02T16:34:06.014Z,91.60
2023-04-02T16:37:29.720Z,91.60
2023-04-02T16:41:09.123Z,90.90
2023-04-02T16:44:21.109Z,91.00
2023-04-02T16:48:03.433Z,91.50
2023-04-02T16:51:37.211Z,90.90
2023-04-02T16:54:51.881Z,92.00
2023-04-02T16:58:30.702Z,91.20
2023-04-02T17:01:51.113Z,91.20
2023-04-02T17:04:52.684Z,91.10
2023-04-02T17:08:12.997Z,91.50
2023-04-02T17:11:24.369Z,91.20
2023-04-02T17:14:32.006Z,92.40
2023-04-02T17:17:33.573Z,91.50
2023-04-02T17:20:35.322Z,92.30
2023-04-02T17:23:57.109Z,92.50
2023-04-02T17:27:31.153Z,92.10
2023-04-02T17:30:43.402Z,92.20
2023-04-02T17:33:44.986Z,91.30
2023-04-02T17:37:05.900Z,92.10
2023-04-02T17:40:50.361Z,91.40
2023-04-02T17:44:13.417Z,91.50
2023-04-02T17:47:26.983Z,91.50
2023-04-02T17:50:47.509Z,92.40
2023-04-02T17:54:10.347Z,91.50
2023-04-02T17:57:33.416Z,91.40
2023-04-02T18:00:47.241Z,91.70
2023-04-02T18:04:07.936Z,91.80
2023-04-02T18:07:24.489Z,91.80
2023-04-02T18:10:38.639Z,92.60
2023-04-02T18:14:00.003Z,92.00
2023-04-02T18:17:52.688Z,91.90
2023-04-02T18:21:03.649Z,91.90
2023-04-02T18:24:26.954Z,92.70
2023-04-02T18:28:02.781Z,92.10
2023-04-02T18:31:16.920Z,91.90
2023-04-02T18:34:32.686Z,92.90
2023-04-02T18:38:12.054Z,92.90
2023-04-02T18:41:35.076Z,92.20
2023-04-02T18:44:55.478Z,92.30
2023-04-02T18:48:04.862Z,92.30
2023-04-02T18:51:16.951Z,93.10
2023-04-02T18:55:02.424Z,92.30
2023-04-02T18:58:20.438Z,92.10
2023-04-02T19:01:34.307Z,93.10
2023-04-02T19:04:37.781Z,92.50
2023-04-02T19:07:43.162Z,93.20
2023-04-02T19:10:47.890Z,93.50
2023-04-02T19:13:51.281Z,93.10
2023-04-02T19:17:11.464Z,93.50
2023-04-02T19:21:04.970Z,93.10
2023-04-02T19:24:14.567Z,92.50
2023-04-02T19:27:47.806Z,93.30
2023-04-02T19:31:09.575Z,92.50
2023-04-02T19:34:31.629Z,93.40
2023-04-02T19:37:38.718Z,93.40
2023-04-02T19:40:51.370Z,93.30
2023-04-02T19:43:54.611Z,92.50
2023-04-02T19:46:56.318Z,93.70
2023-04-02T19:49:58.091Z,93.40
2023-04-02T19:52:59.691Z,93.60
2023-04-02T19:56:01.314Z,93.70
2023-04-02T19:59:14.766Z,93.70
2023-04-02T20:02:19.374Z,94.20
2023-04-02T20:05:21.154Z,93.60
2023-04-02T20:08:22.798Z,93.80
2023-04-02T20:11:26.442Z,93.80
2023-04-02T20:14:28.040Z,94.20
2023-04-02T20:17:29.667Z,93.80
2023-04-02T20:20:31.298Z,93.80
2023-04-02T20:23:33.863Z,93.70
2023-04-02T20:26:36.196Z,94.00
2023-04-02T20:29:39.494Z,94.00
2023-04-02T20:32:41.249Z,94.10
2023-04-02T20:35:43.145Z,94.30
2023-04-02T20:38:45.523Z,94.30
2023-04-02T20:41:47.614Z,94.30
2023-04-02T20:44:49.170Z,94.40
2023-04-02T20:47:50.849Z,94.70
2023-04-02T20:50:52.697Z,94.40
2023-04-02T20:53:55.172Z,94.30
2023-04-02T20:56:56.864Z,94.60
2023-04-02T20:59:58.992Z,94.40
2023-04-02T21:03:00.671Z,94.70
2023-04-02T21:06:02.532Z,94.40
2023-04-02T21:09:08.290Z,94.60
2023-04-02T21:12:11.393Z,94.60
2023-04-02T21:15:13.458Z,94.40
2023-04-02T21:18:15.312Z,94.40
2023-04-02T21:21:17.946Z,94.30
2023-04-02T21:24:19.494Z,94.50
2023-04-02T21:27:25.502Z,94.50
2023-04-02T21:30:27.080Z,94.60
2023-04-02T21:33:28.762Z,94.40
2023-04-02T21:36:36.094Z,94.60
2023-04-02T21:39:37.693Z,94.60
2023-04-02T21:42:39.391Z,94.60
2023-04-02T21:45:40.934Z,94.60
2023-04-02T21:48:43.413Z,94.50
2023-04-02T21:51:46.545Z,94.60
2023-04-02T21:54:48.135Z,95.00
2023-04-02T21:57:49.910Z,94.80
2023-04-02T22:00:51.671Z,94.90
2023-04-02T22:03:54.169Z,95.00
2023-04-02T22:06:56.154Z,95.00
2023-04-02T22:09:57.734Z,95.00
2023-04-02T22:12:59.278Z,94.90
2023-04-02T22:16:06.917Z,95.00
2023-04-02T22:19:11.983Z,95.00
2023-04-02T22:22:13.559Z,95.10
2023-04-02T22:25:15.318Z,95.10
2023-04-02T22:28:16.899Z,95.00
2023-04-02T22:31:22.020Z,95.10
2023-04-02T22:34:23.732Z,95.10
2023-04-02T22:37:25.422Z,95.10
2023-04-02T22:40:27.032Z,94.90
2023-04-02T22:43:28.584Z,95.10
2023-04-02T22:46:30.844Z,95.10
2023-04-02T22:49:32.420Z,95.10
2023-04-02T22:52:33.950Z,95.10
2023-04-02T22:55:35.804Z,95.20
2023-04-02T22:58:38.019Z,95.20
2023-04-02T23:01:40.047Z,95.30
2023-04-02T23:04:41.758Z,95.20
2023-04-02T23:07:43.354Z,95.10
2023-04-02T23:10:45.021Z,95.30
2023-04-02T23:13:49.002Z,95.40
2023-04-02T23:16:50.596Z,95.40
2023-04-02T23:19:52.158Z,95.30
2023-04-02T23:22:53.827Z,95.40
2023-04-02T23:26:10.161Z,95.10
2023-04-02T23:29:11.739Z,95.50
2023-04-02T23:32:13.316Z,95.20
2023-04-02T23:35:15.644Z,95.30
2023-04-02T23:38:17.199Z,95.30
2023-04-02T23:41:18.965Z,95.40
2023-04-02T23:44:20.605Z,95.00
2023-04-02T23:47:22.238Z,95.50
2023-04-02T23:50:23.830Z,95.60
2023-04-02T23:53:25.751Z,95.50
2023-04-02T23:56:27.711Z,95.50
2023-04-02T23:59:29.345Z,95.60
